sensor_id;sensor_type;location;lat;lon;timestamp;P1;durP1;ratioP1;P2;durP2;ratioP2
53674;SDS011;39574;50.534;8.500;2022-10-31T00:02:46;11.5;;;5.8;;
53674;SDS011;39574;50.534;8.500;2022-10-31T00:07:45;11.1;;;5.5;;
53674;SDS011;39574;50.534;8.500;2022-10-31T00:12:45;11.7;;;5.9;;
53674;SDS011;39574;50.534;8.500;2022-10-31T00:17:44;12.8;;;6.6;;
53674;SDS011;39574;50.534;8.500;2022-10-31T00:22:43;13.9;;;7.1;;
53674;SDS011;39574;50.534;8.500;2022-10-31T00:27:42;14.2;;;7.2;;
53674;SDS011;39574;50.534;8.500;2022-10-31T00:32:41;14.0;;;7.5;;
53674;SDS011;39574;50.534;8.500;2022-10-31T00:37:40;13.9;;;7.3;;
53674;SDS011;39574;50.534;8.500;2022-10-31T00:42:39;13.2;;;7.0;;
53674;SDS011;39574;50.534;8.500;2022-10-31T00:47:38;12.5;;;6.9;;
53674;SDS011;39574;50.534;8.500;2022-10-31T00:52:38;12.5;;;6.6;;
53674;SDS011;39574;50.534;8.500;2022-10-31T00:57:37;10.7;;;6.3;;
53674;SDS011;39574;50.534;8.500;2022-10-31T01:02:36;11.9;;;6.4;;
53674;SDS011;39574;50.534;8.500;2022-10-31T01:07:35;12.3;;;6.2;;
53674;SDS011;39574;50.534;8.500;2022-10-31T01:12:35;12.1;;;5.9;;
53674;SDS011;39574;50.534;8.500;2022-10-31T01:17:33;11.1;;;5.8;;
53674;SDS011;39574;50.534;8.500;2022-10-31T01:22:32;10.5;;;5.7;;
53674;SDS011;39574;50.534;8.500;2022-10-31T01:27:31;9.9;;;5.3;;
53674;SDS011;39574;50.534;8.500;2022-10-31T01:32:30;11.6;;;5.3;;
53674;SDS011;39574;50.534;8.500;2022-10-31T01:37:30;10.9;;;5.1;;
53674;SDS011;39574;50.534;8.500;2022-10-31T01:42:29;10.4;;;5.0;;
53674;SDS011;39574;50.534;8.500;2022-10-31T01:47:32;10.5;;;5.3;;
53674;SDS011;39574;50.534;8.500;2022-10-31T01:52:27;9.1;;;4.9;;
53674;SDS011;39574;50.534;8.500;2022-10-31T01:57:26;9.3;;;4.7;;
53674;SDS011;39574;50.534;8.500;2022-10-31T02:02:25;9.9;;;4.9;;
53674;SDS011;39574;50.534;8.500;2022-10-31T02:07:25;10.3;;;5.0;;
53674;SDS011;39574;50.534;8.500;2022-10-31T02:12:23;11.1;;;5.1;;
53674;SDS011;39574;50.534;8.500;2022-10-31T02:17:22;10.0;;;4.9;;
53674;SDS011;39574;50.534;8.500;2022-10-31T02:22:23;9.6;;;5.1;;
53674;SDS011;39574;50.534;8.500;2022-10-31T02:27:27;10.4;;;5.0;;
53674;SDS011;39574;50.534;8.500;2022-10-31T02:32:20;9.7;;;4.8;;
53674;SDS011;39574;50.534;8.500;2022-10-31T02:37:19;9.4;;;4.8;;
53674;SDS011;39574;50.534;8.500;2022-10-31T02:42:18;12.4;;;5.1;;
53674;SDS011;39574;50.534;8.500;2022-10-31T02:47:17;11.1;;;5.1;;
53674;SDS011;39574;50.534;8.500;2022-10-31T02:52:17;10.7;;;4.9;;
53674;SDS011;39574;50.534;8.500;2022-10-31T02:57:16;11.1;;;5.6;;
53674;SDS011;39574;50.534;8.500;2022-10-31T03:02:20;10.3;;;5.7;;
53674;SDS011;39574;50.534;8.500;2022-10-31T03:07:16;10.0;;;5.5;;
53674;SDS011;39574;50.534;8.500;2022-10-31T03:12:13;9.5;;;5.3;;
53674;SDS011;39574;50.534;8.500;2022-10-31T03:17:13;11.4;;;4.9;;
53674;SDS011;39574;50.534;8.500;2022-10-31T03:22:14;10.8;;;5.2;;
53674;SDS011;39574;50.534;8.500;2022-10-31T03:27:10;10.5;;;5.5;;
53674;SDS011;39574;50.534;8.500;2022-10-31T03:32:09;10.4;;;5.5;;
53674;SDS011;39574;50.534;8.500;2022-10-31T03:37:09;10.7;;;5.3;;
53674;SDS011;39574;50.534;8.500;2022-10-31T03:42:08;10.4;;;5.1;;
53674;SDS011;39574;50.534;8.500;2022-10-31T03:47:06;9.8;;;5.0;;
53674;SDS011;39574;50.534;8.500;2022-10-31T03:52:07;10.0;;;5.0;;
53674;SDS011;39574;50.534;8.500;2022-10-31T03:57:05;11.4;;;5.5;;
53674;SDS011;39574;50.534;8.500;2022-10-31T04:02:05;11.6;;;5.3;;
53674;SDS011;39574;50.534;8.500;2022-10-31T04:07:02;11.6;;;5.1;;
53674;SDS011;39574;50.534;8.500;2022-10-31T04:12:02;11.3;;;5.2;;
53674;SDS011;39574;50.534;8.500;2022-10-31T04:17:01;11.3;;;5.4;;
53674;SDS011;39574;50.534;8.500;2022-10-31T04:22:00;11.3;;;5.5;;
53674;SDS011;39574;50.534;8.500;2022-10-31T04:26:59;10.6;;;5.4;;
53674;SDS011;39574;50.534;8.500;2022-10-31T04:31:58;10.5;;;5.4;;
53674;SDS011;39574;50.534;8.500;2022-10-31T04:36:57;10.6;;;5.3;;
53674;SDS011;39574;50.534;8.500;2022-10-31T04:41:56;10.6;;;5.2;;
53674;SDS011;39574;50.534;8.500;2022-10-31T04:46:55;9.9;;;5.0;;
53674;SDS011;39574;50.534;8.500;2022-10-31T04:51:54;9.4;;;4.9;;
53674;SDS011;39574;50.534;8.500;2022-10-31T04:56:53;12.0;;;5.4;;
53674;SDS011;39574;50.534;8.500;2022-10-31T05:01:52;13.6;;;5.6;;
53674;SDS011;39574;50.534;8.500;2022-10-31T05:06:51;14.2;;;5.7;;
53674;SDS011;39574;50.534;8.500;2022-10-31T05:11:50;13.1;;;5.4;;
53674;SDS011;39574;50.534;8.500;2022-10-31T05:16:49;11.6;;;5.2;;
53674;SDS011;39574;50.534;8.500;2022-10-31T05:21:48;11.2;;;5.1;;
53674;SDS011;39574;50.534;8.500;2022-10-31T05:26:48;11.4;;;5.1;;
53674;SDS011;39574;50.534;8.500;2022-10-31T05:31:47;12.3;;;5.1;;
53674;SDS011;39574;50.534;8.500;2022-10-31T05:36:46;12.3;;;5.3;;
53674;SDS011;39574;50.534;8.500;2022-10-31T05:41:45;18.8;;;6.3;;
53674;SDS011;39574;50.534;8.500;2022-10-31T05:46:45;17.3;;;6.5;;
53674;SDS011;39574;50.534;8.500;2022-10-31T05:51:43;16.2;;;6.5;;
53674;SDS011;39574;50.534;8.500;2022-10-31T05:56:42;14.8;;;6.0;;
53674;SDS011;39574;50.534;8.500;2022-10-31T06:01:41;14.3;;;6.3;;
53674;SDS011;39574;50.534;8.500;2022-10-31T06:06:40;13.6;;;6.0;;
53674;SDS011;39574;50.534;8.500;2022-10-31T06:11:39;12.4;;;5.7;;
53674;SDS011;39574;50.534;8.500;2022-10-31T06:16:38;11.1;;;5.5;;
53674;SDS011;39574;50.534;8.500;2022-10-31T06:21:37;10.6;;;5.3;;
53674;SDS011;39574;50.534;8.500;2022-10-31T06:26:37;10.5;;;5.5;;
53674;SDS011;39574;50.534;8.500;2022-10-31T06:31:35;10.3;;;5.6;;
53674;SDS011;39574;50.534;8.500;2022-10-31T06:36:34;11.7;;;5.6;;
53674;SDS011;39574;50.534;8.500;2022-10-31T06:41:33;12.7;;;5.8;;
53674;SDS011;39574;50.534;8.500;2022-10-31T06:46:33;14.6;;;6.4;;
53674;SDS011;39574;50.534;8.500;2022-10-31T06:51:32;18.2;;;7.1;;
53674;SDS011;39574;50.534;8.500;2022-10-31T06:56:31;16.8;;;7.3;;
53674;SDS011;39574;50.534;8.500;2022-10-31T07:01:30;20.1;;;7.3;;
53674;SDS011;39574;50.534;8.500;2022-10-31T07:11:28;17.9;;;7.4;;
53674;SDS011;39574;50.534;8.500;2022-10-31T07:16:27;15.1;;;7.3;;
53674;SDS011;39574;50.534;8.500;2022-10-31T07:21:26;14.6;;;7.4;;
53674;SDS011;39574;50.534;8.500;2022-10-31T07:26:25;15.5;;;8.0;;
53674;SDS011;39574;50.534;8.500;2022-10-31T07:31:24;16.4;;;8.5;;
53674;SDS011;39574;50.534;8.500;2022-10-31T07:36:23;26.8;;;9.8;;
53674;SDS011;39574;50.534;8.500;2022-10-31T07:41:22;32.8;;;10.4;;
53674;SDS011;39574;50.534;8.500;2022-10-31T07:46:21;30.8;;;10.6;;
53674;SDS011;39574;50.534;8.500;2022-10-31T07:51:20;25.5;;;10.0;;
53674;SDS011;39574;50.534;8.500;2022-10-31T07:56:19;21.8;;;9.9;;
53674;SDS011;39574;50.534;8.500;2022-10-31T08:01:18;22.1;;;9.8;;
53674;SDS011;39574;50.534;8.500;2022-10-31T08:06:18;21.7;;;10.0;;
53674;SDS011;39574;50.534;8.500;2022-10-31T08:11:17;29.5;;;10.6;;
53674;SDS011;39574;50.534;8.500;2022-10-31T08:16:16;53.4;;;11.8;;
53674;SDS011;39574;50.534;8.500;2022-10-31T08:21:15;43.0;;;11.0;;
53674;SDS011;39574;50.534;8.500;2022-10-31T08:26:14;31.5;;;10.0;;
53674;SDS011;39574;50.534;8.500;2022-10-31T08:31:13;22.1;;;9.5;;
53674;SDS011;39574;50.534;8.500;2022-10-31T08:36:12;13.4;;;8.6;;
53674;SDS011;39574;50.534;8.500;2022-10-31T08:41:11;14.3;;;8.9;;
53674;SDS011;39574;50.534;8.500;2022-10-31T08:46:10;15.0;;;8.8;;
53674;SDS011;39574;50.534;8.500;2022-10-31T08:51:10;15.0;;;9.0;;
53674;SDS011;39574;50.534;8.500;2022-10-31T08:56:09;15.0;;;9.4;;
53674;SDS011;39574;50.534;8.500;2022-10-31T09:01:08;15.4;;;9.7;;
53674;SDS011;39574;50.534;8.500;2022-10-31T09:06:07;14.4;;;9.8;;
53674;SDS011;39574;50.534;8.500;2022-10-31T09:11:06;13.7;;;9.4;;
53674;SDS011;39574;50.534;8.500;2022-10-31T09:16:06;12.7;;;8.7;;
53674;SDS011;39574;50.534;8.500;2022-10-31T09:21:05;11.9;;;8.3;;
53674;SDS011;39574;50.534;8.500;2022-10-31T09:26:04;11.6;;;8.1;;
53674;SDS011;39574;50.534;8.500;2022-10-31T09:31:03;11.1;;;7.9;;
53674;SDS011;39574;50.534;8.500;2022-10-31T09:36:03;11.2;;;7.9;;
53674;SDS011;39574;50.534;8.500;2022-10-31T09:41:04;11.7;;;8.1;;
53674;SDS011;39574;50.534;8.500;2022-10-31T09:46:04;11.7;;;8.2;;
53674;SDS011;39574;50.534;8.500;2022-10-31T09:51:03;13.8;;;8.7;;
53674;SDS011;39574;50.534;8.500;2022-10-31T09:56:00;13.7;;;8.8;;
53674;SDS011;39574;50.534;8.500;2022-10-31T10:01:00;13.8;;;8.9;;
53674;SDS011;39574;50.534;8.500;2022-10-31T10:06:01;14.4;;;9.4;;
53674;SDS011;39574;50.534;8.500;2022-10-31T10:10:59;15.2;;;9.6;;
53674;SDS011;39574;50.534;8.500;2022-10-31T10:16:00;17.3;;;10.3;;
53674;SDS011;39574;50.534;8.500;2022-10-31T10:21:00;20.2;;;11.4;;
53674;SDS011;39574;50.534;8.500;2022-10-31T10:25:58;21.3;;;11.6;;
53674;SDS011;39574;50.534;8.500;2022-10-31T10:30:56;20.8;;;11.7;;
53674;SDS011;39574;50.534;8.500;2022-10-31T10:35:55;21.1;;;11.9;;
53674;SDS011;39574;50.534;8.500;2022-10-31T10:40:54;20.6;;;12.1;;
53674;SDS011;39574;50.534;8.500;2022-10-31T10:46:00;19.0;;;11.6;;
53674;SDS011;39574;50.534;8.500;2022-10-31T10:50:53;18.3;;;10.9;;
53674;SDS011;39574;50.534;8.500;2022-10-31T10:55:53;16.8;;;9.3;;
53674;SDS011;39574;50.534;8.500;2022-10-31T11:00:52;15.2;;;8.4;;
53674;SDS011;39574;50.534;8.500;2022-10-31T11:05:51;14.9;;;7.9;;
53674;SDS011;39574;50.534;8.500;2022-10-31T11:10:55;14.3;;;7.7;;
53674;SDS011;39574;50.534;8.500;2022-10-31T11:15:51;14.5;;;7.6;;
53674;SDS011;39574;50.534;8.500;2022-10-31T11:20:50;14.0;;;7.5;;
53674;SDS011;39574;50.534;8.500;2022-10-31T11:25:49;13.8;;;7.4;;
53674;SDS011;39574;50.534;8.500;2022-10-31T11:30:48;14.1;;;7.5;;
53674;SDS011;39574;50.534;8.500;2022-10-31T11:35:47;14.6;;;7.7;;
53674;SDS011;39574;50.534;8.500;2022-10-31T11:40:54;14.5;;;7.7;;
53674;SDS011;39574;50.534;8.500;2022-10-31T11:45:46;14.5;;;7.7;;
53674;SDS011;39574;50.534;8.500;2022-10-31T11:50:47;14.6;;;7.8;;
53674;SDS011;39574;50.534;8.500;2022-10-31T11:55:45;14.2;;;7.9;;
53674;SDS011;39574;50.534;8.500;2022-10-31T12:00:48;13.8;;;7.5;;
53674;SDS011;39574;50.534;8.500;2022-10-31T12:05:44;14.9;;;7.5;;
53674;SDS011;39574;50.534;8.500;2022-10-31T12:10:45;14.4;;;7.3;;
53674;SDS011;39574;50.534;8.500;2022-10-31T12:15:43;13.7;;;7.0;;
53674;SDS011;39574;50.534;8.500;2022-10-31T12:20:44;14.2;;;6.8;;
53674;SDS011;39574;50.534;8.500;2022-10-31T12:25:42;13.6;;;6.9;;
53674;SDS011;39574;50.534;8.500;2022-10-31T12:30:46;13.6;;;6.9;;
53674;SDS011;39574;50.534;8.500;2022-10-31T12:35:40;13.5;;;7.1;;
53674;SDS011;39574;50.534;8.500;2022-10-31T12:40:43;12.5;;;7.1;;
53674;SDS011;39574;50.534;8.500;2022-10-31T12:45:42;12.4;;;7.1;;
53674;SDS011;39574;50.534;8.500;2022-10-31T12:50:43;13.2;;;7.2;;
53674;SDS011;39574;50.534;8.500;2022-10-31T12:55:40;12.8;;;6.9;;
53674;SDS011;39574;50.534;8.500;2022-10-31T13:00:37;13.8;;;6.8;;
53674;SDS011;39574;50.534;8.500;2022-10-31T13:05:37;13.5;;;6.5;;
53674;SDS011;39574;50.534;8.500;2022-10-31T13:10:36;12.1;;;6.0;;
53674;SDS011;39574;50.534;8.500;2022-10-31T13:15:41;11.0;;;5.9;;
53674;SDS011;39574;50.534;8.500;2022-10-31T13:20:37;11.2;;;5.8;;
53674;SDS011;39574;50.534;8.500;2022-10-31T13:25:36;11.5;;;5.7;;
53674;SDS011;39574;50.534;8.500;2022-10-31T13:30:34;11.0;;;5.5;;
53674;SDS011;39574;50.534;8.500;2022-10-31T13:35:34;10.7;;;5.3;;
53674;SDS011;39574;50.534;8.500;2022-10-31T13:40:34;11.0;;;5.4;;
53674;SDS011;39574;50.534;8.500;2022-10-31T13:45:32;11.1;;;5.6;;
53674;SDS011;39574;50.534;8.500;2022-10-31T13:50:32;10.8;;;5.7;;
53674;SDS011;39574;50.534;8.500;2022-10-31T13:55:34;11.5;;;5.8;;
53674;SDS011;39574;50.534;8.500;2022-10-31T14:00:30;11.3;;;5.6;;
53674;SDS011;39574;50.534;8.500;2022-10-31T14:05:30;10.8;;;5.5;;
53674;SDS011;39574;50.534;8.500;2022-10-31T14:10:30;10.5;;;5.4;;
53674;SDS011;39574;50.534;8.500;2022-10-31T14:15:29;9.7;;;5.4;;
53674;SDS011;39574;50.534;8.500;2022-10-31T14:20:33;9.5;;;5.4;;
53674;SDS011;39574;50.534;8.500;2022-10-31T14:25:29;9.9;;;5.4;;
53674;SDS011;39574;50.534;8.500;2022-10-31T14:30:28;10.1;;;5.3;;
53674;SDS011;39574;50.534;8.500;2022-10-31T14:35:31;10.1;;;5.3;;
53674;SDS011;39574;50.534;8.500;2022-10-31T14:40:27;11.1;;;5.5;;
53674;SDS011;39574;50.534;8.500;2022-10-31T14:45:27;11.1;;;5.4;;
53674;SDS011;39574;50.534;8.500;2022-10-31T14:50:31;10.9;;;5.3;;
53674;SDS011;39574;50.534;8.500;2022-10-31T14:55:24;10.7;;;5.4;;
53674;SDS011;39574;50.534;8.500;2022-10-31T15:00:24;11.7;;;6.0;;
53674;SDS011;39574;50.534;8.500;2022-10-31T15:05:23;11.7;;;6.2;;
53674;SDS011;39574;50.534;8.500;2022-10-31T15:10:23;11.6;;;6.5;;
53674;SDS011;39574;50.534;8.500;2022-10-31T15:15:23;10.8;;;6.2;;
53674;SDS011;39574;50.534;8.500;2022-10-31T15:20:21;9.8;;;5.6;;
53674;SDS011;39574;50.534;8.500;2022-10-31T15:25:22;10.5;;;5.9;;
53674;SDS011;39574;50.534;8.500;2022-10-31T15:30:21;10.5;;;5.7;;
53674;SDS011;39574;50.534;8.500;2022-10-31T15:35:21;9.8;;;5.6;;
53674;SDS011;39574;50.534;8.500;2022-10-31T15:40:20;10.4;;;5.5;;
53674;SDS011;39574;50.534;8.500;2022-10-31T15:45:19;11.4;;;5.9;;
53674;SDS011;39574;50.534;8.500;2022-10-31T15:50:18;11.9;;;6.5;;
53674;SDS011;39574;50.534;8.500;2022-10-31T15:55:18;12.7;;;7.1;;
53674;SDS011;39574;50.534;8.500;2022-10-31T16:00:21;13.5;;;7.9;;
53674;SDS011;39574;50.534;8.500;2022-10-31T16:25:14;12.5;;;6.1;;
53674;SDS011;39574;50.534;8.500;2022-10-31T16:30:29;11.6;;;6.8;;
53674;SDS011;39574;50.534;8.500;2022-10-31T16:35:16;11.1;;;6.4;;
53674;SDS011;39574;50.534;8.500;2022-10-31T16:40:11;13.7;;;7.3;;
53674;SDS011;39574;50.534;8.500;2022-10-31T16:45:13;14.6;;;7.6;;
53674;SDS011;39574;50.534;8.500;2022-10-31T16:50:11;15.6;;;8.2;;
53674;SDS011;39574;50.534;8.500;2022-10-31T16:55:10;16.6;;;9.8;;
53674;SDS011;39574;50.534;8.500;2022-10-31T17:00:12;16.8;;;10.5;;
53674;SDS011;39574;50.534;8.500;2022-10-31T17:05:09;17.1;;;10.8;;
53674;SDS011;39574;50.534;8.500;2022-10-31T17:10:07;16.9;;;10.3;;
53674;SDS011;39574;50.534;8.500;2022-10-31T17:15:08;16.8;;;9.6;;
53674;SDS011;39574;50.534;8.500;2022-10-31T17:20:10;17.0;;;9.3;;
53674;SDS011;39574;50.534;8.500;2022-10-31T17:25:07;17.8;;;9.6;;
53674;SDS011;39574;50.534;8.500;2022-10-31T17:30:04;16.1;;;9.3;;
53674;SDS011;39574;50.534;8.500;2022-10-31T17:35:04;15.7;;;9.0;;
53674;SDS011;39574;50.534;8.500;2022-10-31T17:40:03;15.4;;;8.6;;
53674;SDS011;39574;50.534;8.500;2022-10-31T17:45:02;15.9;;;8.3;;
53674;SDS011;39574;50.534;8.500;2022-10-31T17:50:01;16.8;;;8.3;;
53674;SDS011;39574;50.534;8.500;2022-10-31T17:55:01;16.3;;;8.6;;
53674;SDS011;39574;50.534;8.500;2022-10-31T18:00:00;16.9;;;9.2;;
53674;SDS011;39574;50.534;8.500;2022-10-31T18:04:59;18.8;;;11.4;;
53674;SDS011;39574;50.534;8.500;2022-10-31T18:09:59;21.3;;;13.6;;
53674;SDS011;39574;50.534;8.500;2022-10-31T18:14:57;22.6;;;14.3;;
53674;SDS011;39574;50.534;8.500;2022-10-31T18:19:57;24.7;;;15.3;;
53674;SDS011;39574;50.534;8.500;2022-10-31T18:24:56;24.3;;;14.0;;
53674;SDS011;39574;50.534;8.500;2022-10-31T18:29:55;23.7;;;13.1;;
53674;SDS011;39574;50.534;8.500;2022-10-31T18:34:54;20.7;;;11.3;;
53674;SDS011;39574;50.534;8.500;2022-10-31T18:39:54;18.1;;;9.7;;
53674;SDS011;39574;50.534;8.500;2022-10-31T18:44:53;19.6;;;11.0;;
53674;SDS011;39574;50.534;8.500;2022-10-31T18:49:52;20.3;;;11.7;;
53674;SDS011;39574;50.534;8.500;2022-10-31T18:54:51;20.1;;;11.6;;
53674;SDS011;39574;50.534;8.500;2022-10-31T18:59:50;20.6;;;11.8;;
53674;SDS011;39574;50.534;8.500;2022-10-31T19:04:50;22.7;;;12.8;;
53674;SDS011;39574;50.534;8.500;2022-10-31T19:09:49;25.5;;;14.6;;
53674;SDS011;39574;50.534;8.500;2022-10-31T19:14:48;26.6;;;15.2;;
53674;SDS011;39574;50.534;8.500;2022-10-31T19:19:47;32.2;;;19.2;;
53674;SDS011;39574;50.534;8.500;2022-10-31T19:24:46;30.4;;;18.7;;
53674;SDS011;39574;50.534;8.500;2022-10-31T19:29:46;26.1;;;16.2;;
53674;SDS011;39574;50.534;8.500;2022-10-31T19:34:45;25.8;;;16.1;;
53674;SDS011;39574;50.534;8.500;2022-10-31T19:39:44;25.6;;;15.5;;
53674;SDS011;39574;50.534;8.500;2022-10-31T19:44:43;25.0;;;14.0;;
53674;SDS011;39574;50.534;8.500;2022-10-31T19:49:43;24.0;;;13.4;;
53674;SDS011;39574;50.534;8.500;2022-10-31T19:54:42;21.6;;;12.1;;
53674;SDS011;39574;50.534;8.500;2022-10-31T19:59:41;21.5;;;12.0;;
53674;SDS011;39574;50.534;8.500;2022-10-31T20:04:40;22.1;;;12.0;;
53674;SDS011;39574;50.534;8.500;2022-10-31T20:09:39;18.9;;;10.7;;
53674;SDS011;39574;50.534;8.500;2022-10-31T20:14:38;18.6;;;10.2;;
53674;SDS011;39574;50.534;8.500;2022-10-31T20:19:37;16.6;;;9.4;;
53674;SDS011;39574;50.534;8.500;2022-10-31T20:24:36;17.2;;;9.6;;
53674;SDS011;39574;50.534;8.500;2022-10-31T20:29:35;18.3;;;10.3;;
53674;SDS011;39574;50.534;8.500;2022-10-31T20:34:35;18.1;;;10.1;;
53674;SDS011;39574;50.534;8.500;2022-10-31T20:39:34;18.6;;;10.2;;
53674;SDS011;39574;50.534;8.500;2022-10-31T20:44:33;19.1;;;10.5;;
53674;SDS011;39574;50.534;8.500;2022-10-31T20:49:32;19.8;;;10.6;;
53674;SDS011;39574;50.534;8.500;2022-10-31T20:54:31;18.5;;;10.3;;
53674;SDS011;39574;50.534;8.500;2022-10-31T20:59:30;20.2;;;10.8;;
53674;SDS011;39574;50.534;8.500;2022-10-31T21:04:29;21.2;;;11.3;;
53674;SDS011;39574;50.534;8.500;2022-10-31T21:09:29;20.3;;;11.3;;
53674;SDS011;39574;50.534;8.500;2022-10-31T21:14:31;20.6;;;11.7;;
53674;SDS011;39574;50.534;8.500;2022-10-31T21:19:27;19.5;;;11.1;;
53674;SDS011;39574;50.534;8.500;2022-10-31T21:24:26;18.6;;;10.8;;
53674;SDS011;39574;50.534;8.500;2022-10-31T21:29:25;18.1;;;10.4;;
53674;SDS011;39574;50.534;8.500;2022-10-31T21:34:24;17.4;;;10.4;;
53674;SDS011;39574;50.534;8.500;2022-10-31T21:39:23;18.4;;;11.5;;
53674;SDS011;39574;50.534;8.500;2022-10-31T21:44:22;19.5;;;11.5;;
53674;SDS011;39574;50.534;8.500;2022-10-31T21:49:22;18.3;;;11.0;;
53674;SDS011;39574;50.534;8.500;2022-10-31T21:54:21;18.1;;;10.6;;
53674;SDS011;39574;50.534;8.500;2022-10-31T21:59:20;17.6;;;10.2;;
53674;SDS011;39574;50.534;8.500;2022-10-31T22:04:19;16.4;;;9.9;;
53674;SDS011;39574;50.534;8.500;2022-10-31T22:09:18;16.5;;;10.1;;
53674;SDS011;39574;50.534;8.500;2022-10-31T22:14:17;18.4;;;11.1;;
53674;SDS011;39574;50.534;8.500;2022-10-31T22:19:16;19.1;;;11.5;;
53674;SDS011;39574;50.534;8.500;2022-10-31T22:24:16;18.4;;;10.9;;
53674;SDS011;39574;50.534;8.500;2022-10-31T22:29:16;16.8;;;10.0;;
53674;SDS011;39574;50.534;8.500;2022-10-31T22:34:14;16.3;;;9.7;;
53674;SDS011;39574;50.534;8.500;2022-10-31T22:44:12;15.3;;;9.5;;
53674;SDS011;39574;50.534;8.500;2022-10-31T22:49:11;15.9;;;9.5;;
53674;SDS011;39574;50.534;8.500;2022-10-31T22:54:10;15.6;;;9.4;;
53674;SDS011;39574;50.534;8.500;2022-10-31T22:59:10;15.8;;;9.2;;
53674;SDS011;39574;50.534;8.500;2022-10-31T23:04:08;20.2;;;10.2;;
53674;SDS011;39574;50.534;8.500;2022-10-31T23:09:07;23.7;;;10.7;;
53674;SDS011;39574;50.534;8.500;2022-10-31T23:14:10;24.2;;;11.6;;
53674;SDS011;39574;50.534;8.500;2022-10-31T23:19:06;40.0;;;12.8;;
53674;SDS011;39574;50.534;8.500;2022-10-31T23:24:05;35.9;;;13.2;;
53674;SDS011;39574;50.534;8.500;2022-10-31T23:29:04;38.2;;;14.0;;
53674;SDS011;39574;50.534;8.500;2022-10-31T23:34:03;34.5;;;14.4;;
53674;SDS011;39574;50.534;8.500;2022-10-31T23:39:02;47.5;;;15.9;;
53674;SDS011;39574;50.534;8.500;2022-10-31T23:44:01;40.2;;;15.2;;
53674;SDS011;39574;50.534;8.500;2022-10-31T23:49:00;34.0;;;15.1;;
53674;SDS011;39574;50.534;8.500;2022-10-31T23:53:59;29.0;;;14.4;;
53674;SDS011;39574;50.534;8.500;2022-10-31T23:58:58;20.8;;;12.4;;
